Time;durP1;ratioP1;P1;durP2;ratioP2;P2;SDS_P1;SDS_P2;PMS_P1;PMS_P2;Temp;Humidity;BMP_temperature;BMP_pressure;BME280_temperature;BME280_humidity;BME280_pressure;Samples;Min_cycle;Max_cycle;Signal;HPM_P1;HPM_P2
2022/10/10 00:01:28;;;;;;;8.75;4.40;;;12.00;68.30;;;;;;5114141;28;20034;-63
2022/10/10 00:03:54;;;;;;;10.18;4.20;;;11.90;68.30;;;;;;5113229;28;20388;-63
2022/10/10 00:06:21;;;;;;;8.48;4.38;;;11.90;68.40;;;;;;5113584;28;20027;-63
2022/10/10 00:08:47;;;;;;;8.52;4.30;;;11.90;68.40;;;;;;5112667;28;20177;-63
2022/10/10 00:11:14;;;;;;;8.98;4.00;;;11.90;68.50;;;;;;5113253;28;20483;-63
2022/10/10 00:13:40;;;;;;;7.78;4.50;;;11.90;68.60;;;;;;5114529;28;20119;-63
2022/10/10 00:16:06;;;;;;;8.10;4.15;;;11.80;68.60;;;;;;5113705;28;20019;-63
2022/10/10 00:18:32;;;;;;;8.70;4.25;;;11.80;68.70;;;;;;5113322;28;20349;-63
2022/10/10 00:20:58;;;;;;;10.23;4.78;;;11.80;68.80;;;;;;5106959;28;20046;-63
2022/10/10 00:23:24;;;;;;;8.25;4.07;;;11.80;68.80;;;;;;5113753;28;20035;-63
2022/10/10 00:25:50;;;;;;;9.48;4.03;;;11.70;68.80;;;;;;5117252;27;20027;-63
2022/10/10 00:28:17;;;;;;;7.57;3.95;;;11.70;69.50;;;;;;5117195;28;20051;-63
2022/10/10 00:30:43;;;;;;;8.68;4.32;;;11.70;69.00;;;;;;5116510;27;20027;-63
2022/10/10 00:33:08;;;;;;;7.85;3.88;;;11.70;69.00;;;;;;5116617;27;20027;-63
2022/10/10 00:35:35;;;;;;;8.60;4.05;;;11.70;69.00;;;;;;5117199;28;20028;-63
2022/10/10 00:38:00;;;;;;;9.27;4.30;;;11.60;69.00;;;;;;5116952;28;20027;-63
2022/10/10 00:40:27;;;;;;;7.63;3.90;;;11.70;69.20;;;;;;5116522;27;20028;-63
2022/10/10 00:42:53;;;;;;;8.43;4.05;;;11.70;69.20;;;;;;5118421;27;20020;-63
2022/10/10 00:45:26;;;;;;;8.82;3.70;;;11.60;69.20;;;;;;5126933;27;20439;-63
2022/10/10 00:47:59;;;;;;;8.48;4.07;;;11.60;69.30;;;;;;5116689;28;20048;-63
2022/10/10 00:50:25;;;;;;;7.97;4.03;;;11.60;69.30;;;;;;5117001;27;20099;-63
2022/10/10 00:52:52;;;;;;;8.85;4.25;;;11.60;69.40;;;;;;5116449;28;20028;-63
2022/10/10 00:55:18;;;;;;;9.73;4.13;;;11.60;69.40;;;;;;5115533;27;20088;-64
2022/10/10 00:57:43;;;;;;;8.82;3.38;;;11.50;69.40;;;;;;5120778;27;20028;-63
2022/10/10 01:00:10;;;;;;;9.15;4.30;;;11.60;69.50;;;;;;5117287;27;20149;-63
2022/10/10 01:02:35;;;;;;;7.90;3.58;;;11.50;69.50;;;;;;5116322;28;20027;-63
2022/10/10 01:05:02;;;;;;;9.43;4.38;;;11.50;69.60;;;;;;5116701;27;20108;-63
2022/10/10 01:07:30;;;;;;;7.93;4.05;;;11.50;69.60;;;;;;5132937;27;20487;-63
2022/10/10 01:10:00;;;;;;;10.45;3.97;;;11.50;69.70;;;;;;5116111;28;20099;-63
2022/10/10 01:12:36;;;;;;;7.78;3.72;;;11.50;69.70;;;;;;5115696;28;20052;-63
2022/10/10 01:15:20;;;;;;;6.20;3.10;;;11.40;69.70;;;;;;5116468;28;20156;-63
2022/10/10 01:17:50;;;;;;;7.88;3.95;;;11.40;69.70;;;;;;5116694;28;20043;-63
2022/10/10 01:20:20;;;;;;;8.52;4.20;;;11.40;69.80;;;;;;5098326;27;20032;-63
2022/10/10 01:23:08;;;;;;;7.40;3.67;;;11.40;69.80;;;;;;5133514;27;20028;-63
2022/10/10 01:25:43;;;;;;;9.18;3.53;;;11.40;69.80;;;;;;5122647;27;20039;-63
2022/10/10 01:28:29;;;;;;;7.10;3.33;;;11.40;69.90;;;;;;5116015;28;20448;-63
2022/10/10 01:30:57;;;;;;;7.72;3.95;;;11.40;69.90;;;;;;5086084;27;20433;-63
2022/10/10 01:33:50;;;;;;;8.02;3.85;;;11.30;69.90;;;;;;5116800;28;20031;-63
2022/10/10 01:36:22;;;;;;;8.20;4.30;;;11.40;70.00;;;;;;5095613;27;20035;-63
2022/10/10 01:38:59;;;;;;;7.82;3.92;;;11.30;70.00;;;;;;5116441;28;20032;-63
2022/10/10 01:41:35;;;;;;;8.02;4.03;;;11.30;70.10;;;;;;5129091;27;20026;-63
2022/10/10 01:44:01;;;;;;;7.75;3.97;;;11.30;70.10;;;;;;5117743;27;20031;-63
2022/10/10 01:46:26;;;;;;;7.80;4.20;;;11.30;70.10;;;;;;5112970;27;20042;-63
2022/10/10 01:48:56;;;;;;;10.73;3.88;;;11.30;70.10;;;;;;5115370;28;20020;-63
2022/10/10 01:52:13;;;;;;;7.88;3.92;;;11.30;70.20;;;;;;5115466;28;20042;-63
2022/10/10 01:54:58;;;;;;;8.05;3.88;;;11.30;70.30;;;;;;5118967;27;20023;-63
2022/10/10 01:57:38;;;;;;;9.90;4.63;;;11.30;70.30;;;;;;5114142;28;20128;-63
2022/10/10 02:00:09;;;;;;;8.43;4.75;;;11.30;70.30;;;;;;5115270;28;20020;-63
2022/10/10 02:02:56;;;;;;;9.07;4.32;;;11.30;70.30;;;;;;5115275;27;20035;-63
2022/10/10 02:05:24;;;;;;;10.20;5.07;;;11.30;70.30;;;;;;5115409;28;20131;-63
2022/10/10 02:08:07;;;;;;;9.00;4.82;;;11.30;70.40;;;;;;5115311;27;20020;-63
2022/10/10 02:10:38;;;;;;;10.48;5.00;;;11.30;70.40;;;;;;5115363;28;20019;-63
2022/10/10 02:13:05;;;;;;;9.23;5.07;;;11.30;70.40;;;;;;5115372;27;20027;-63
2022/10/10 02:15:40;;;;;;;9.13;4.80;;;11.20;70.40;;;;;;5115307;27;20391;-63
2022/10/10 02:18:08;;;;;;;9.55;5.13;;;11.30;70.50;;;;;;5130451;27;20074;-63
2022/10/10 02:20:34;;;;;;;12.20;5.55;;;11.20;70.50;;;;;;5116015;28;20031;-63
2022/10/10 02:23:00;;;;;;;10.02;5.18;;;11.20;70.50;;;;;;5115149;28;20054;-63
2022/10/10 02:25:30;;;;;;;10.68;5.55;;;11.20;70.50;;;;;;5119325;27;20051;-63
2022/10/10 02:28:19;;;;;;;7.95;4.63;;;11.20;70.50;;;;;;5109872;27;20114;-63
2022/10/10 02:30:49;;;;;;;8.50;5.20;;;11.20;70.60;;;;;;5116313;28;20042;-63
2022/10/10 02:33:18;;;;;;;9.35;4.65;;;11.10;70.60;;;;;;5116186;27;20107;-63
2022/10/10 02:35:48;;;;;;;8.15;4.22;;;11.10;70.60;;;;;;5114853;28;20031;-63
2022/10/10 02:38:15;;;;;;;9.48;4.93;;;11.10;70.70;;;;;;5114652;28;20038;-63
2022/10/10 02:40:44;;;;;;;10.70;5.38;;;11.10;70.70;;;;;;5115800;28;20039;-63
2022/10/10 02:43:11;;;;;;;9.27;4.65;;;11.10;70.70;;;;;;5114504;27;20040;-63
2022/10/10 02:45:38;;;;;;;13.07;5.60;;;11.10;70.80;;;;;;5121292;27;20119;-63
2022/10/10 02:48:05;;;;;;;11.10;6.15;;;11.10;70.80;;;;;;5112628;28;21372;-63
2022/10/10 02:50:31;;;;;;;12.25;6.38;;;11.10;70.90;;;;;;5115413;28;20402;-63
2022/10/10 02:52:58;;;;;;;11.43;5.28;;;11.10;70.90;;;;;;5114371;27;20459;-63
2022/10/10 02:55:24;;;;;;;12.70;5.70;;;11.10;70.90;;;;;;5114020;28;20034;-63
2022/10/10 02:57:50;;;;;;;8.93;5.45;;;11.10;70.90;;;;;;5113462;28;20110;-63
2022/10/10 03:00:16;;;;;;;8.13;4.47;;;11.10;71.00;;;;;;5113700;28;20497;-63
2022/10/10 03:02:42;;;;;;;8.85;4.40;;;11.00;70.90;;;;;;5116615;27;20027;-63
2022/10/10 03:05:08;;;;;;;9.15;4.38;;;11.10;71.00;;;;;;5114440;27;20127;-63
2022/10/10 03:07:34;;;;;;;10.50;4.60;;;11.10;71.00;;;;;;5114172;28;20034;-63
2022/10/10 03:10:00;;;;;;;7.90;3.95;;;11.00;71.00;;;;;;5114907;28;20103;-63
2022/10/10 03:12:26;;;;;;;7.60;3.90;;;11.00;71.00;;;;;;5114549;28;20015;-63
2022/10/10 03:14:51;;;;;;;8.88;4.20;;;11.00;71.10;;;;;;5111891;27;20019;-63
2022/10/10 03:17:17;;;;;;;9.25;4.15;;;10.90;71.10;;;;;;5116768;27;20035;-63
2022/10/10 03:19:43;;;;;;;7.60;4.15;;;11.00;71.20;;;;;;5113423;28;20035;-63
2022/10/10 03:22:08;;;;;;;8.85;4.25;;;10.90;71.10;;;;;;5113320;28;20024;-63
2022/10/10 03:24:34;;;;;;;9.13;4.40;;;10.90;71.20;;;;;;5119104;27;20124;-63
2022/10/10 03:27:00;;;;;;;9.68;4.43;;;10.90;71.20;;;;;;5114320;28;20385;-63
2022/10/10 03:29:25;;;;;;;9.73;4.32;;;10.90;71.20;;;;;;5113865;28;20433;-63
2022/10/10 03:31:51;;;;;;;7.13;4.03;;;10.90;71.30;;;;;;5113248;28;20031;-64
2022/10/10 03:34:17;;;;;;;7.30;4.03;;;10.90;71.30;;;;;;5112633;28;20023;-63
2022/10/10 03:36:42;;;;;;;8.18;3.97;;;10.90;71.40;;;;;;5114221;28;20020;-63
2022/10/10 03:39:08;;;;;;;9.52;3.85;;;10.90;71.40;;;;;;5113886;28;20455;-63
2022/10/10 03:41:34;;;;;;;7.85;3.80;;;10.90;71.40;;;;;;5112997;28;20036;-63
2022/10/10 03:44:00;;;;;;;8.25;4.43;;;10.90;71.50;;;;;;5114875;27;20027;-63
2022/10/10 03:46:26;;;;;;;9.13;3.90;;;10.90;71.50;;;;;;5116922;28;20028;-63
2022/10/10 03:48:52;;;;;;;7.35;4.10;;;10.90;71.50;;;;;;5093342;28;20024;-63
2022/10/10 03:51:17;;;;;;;7.88;4.15;;;10.90;71.50;;;;;;5120082;28;20035;-63
2022/10/10 03:53:43;;;;;;;8.55;4.28;;;10.90;71.60;;;;;;5129099;27;20340;-63
2022/10/10 03:56:09;;;;;;;7.47;4.25;;;10.80;71.60;;;;;;5113723;28;20024;-63
2022/10/10 03:58:34;;;;;;;9.77;4.93;;;10.80;71.60;;;;;;5114849;28;20110;-63
2022/10/10 04:01:02;;;;;;;6.90;3.78;;;10.80;71.70;;;;;;5116825;28;20054;-63
2022/10/10 04:03:28;;;;;;;7.65;3.78;;;10.80;71.70;;;;;;5117280;28;20062;-63
2022/10/10 04:05:54;;;;;;;8.00;4.10;;;10.80;71.70;;;;;;5133684;27;20031;-63
2022/10/10 04:08:20;;;;;;;8.60;3.85;;;10.80;71.80;;;;;;5113286;27;20065;-63
2022/10/10 04:10:53;;;;;;;7.18;4.05;;;10.80;71.80;;;;;;5118396;28;20440;-63
2022/10/10 04:13:20;;;;;;;10.93;4.70;;;10.80;72.50;;;;;;5116480;27;20035;-63
2022/10/10 04:15:49;;;;;;;8.02;4.40;;;10.80;71.90;;;;;;5117878;27;20023;-63
2022/10/10 04:18:14;;;;;;;8.25;4.32;;;10.80;71.90;;;;;;5117399;27;20039;-63
2022/10/10 04:20:40;;;;;;;7.75;4.07;;;10.70;71.90;;;;;;5118433;28;20478;-63
2022/10/10 04:23:06;;;;;;;8.73;4.10;;;10.70;71.90;;;;;;5123317;27;20035;-63
2022/10/10 04:25:31;;;;;;;8.43;4.00;;;10.70;71.90;;;;;;5117756;27;20028;-63
2022/10/10 04:27:57;;;;;;;9.02;4.78;;;10.70;71.90;;;;;;5118028;28;20027;-63
2022/10/10 04:30:23;;;;;;;6.82;3.78;;;10.70;71.90;;;;;;5117225;28;20032;-63
2022/10/10 04:32:48;;;;;;;8.98;4.78;;;10.70;72.00;;;;;;5117942;28;20023;-63
2022/10/10 04:35:14;;;;;;;10.75;4.30;;;10.60;71.90;;;;;;5114745;27;20114;-63
2022/10/10 04:37:39;;;;;;;7.28;3.65;;;10.60;72.00;;;;;;5116558;27;20475;-63
2022/10/10 04:40:06;;;;;;;8.95;3.85;;;10.60;72.10;;;;;;5116018;27;20383;-63
2022/10/10 04:42:31;;;;;;;8.23;4.10;;;10.60;72.20;;;;;;5114536;28;20114;-63
2022/10/10 04:44:57;;;;;;;8.25;4.45;;;10.60;72.20;;;;;;5114994;27;20587;-63
2022/10/10 04:47:23;;;;;;;8.43;3.90;;;10.60;72.20;;;;;;5117359;27;20050;-63
2022/10/10 04:49:49;;;;;;;9.43;4.18;;;10.60;72.10;;;;;;5121188;27;20031;-63
2022/10/10 04:52:15;;;;;;;9.32;4.57;;;10.50;72.10;;;;;;5115077;28;20035;-63
2022/10/10 04:54:42;;;;;;;9.27;3.88;;;10.50;72.10;;;;;;5116020;28;20497;-62
2022/10/10 04:57:07;;;;;;;9.93;4.35;;;10.50;72.20;;;;;;5115002;27;20119;-63
2022/10/10 04:59:33;;;;;;;8.07;4.13;;;10.50;72.90;;;;;;5117531;27;21508;-63
2022/10/10 05:01:58;;;;;;;7.35;4.07;;;10.50;72.20;;;;;;5116896;27;20333;-63
2022/10/10 05:04:25;;;;;;;7.60;4.07;;;10.50;72.30;;;;;;5115954;27;20024;-63
2022/10/10 05:06:50;;;;;;;8.18;3.65;;;10.50;72.30;;;;;;5116888;28;20023;-63
2022/10/10 05:09:16;;;;;;;8.20;4.18;;;10.40;72.20;;;;;;5115867;28;20475;-63
2022/10/10 05:11:41;;;;;;;8.02;4.07;;;10.40;72.20;;;;;;5115682;27;20042;-63
2022/10/10 05:14:07;;;;;;;8.07;4.00;;;10.40;72.30;;;;;;5141038;27;20035;-62
2022/10/10 05:16:33;;;;;;;8.88;4.30;;;10.40;72.30;;;;;;5116216;28;20055;-63
2022/10/10 05:19:00;;;;;;;8.30;3.83;;;10.40;72.30;;;;;;5114964;28;20134;-63
2022/10/10 05:21:27;;;;;;;9.68;4.47;;;10.40;72.30;;;;;;5115727;27;20027;-62
2022/10/10 05:23:53;;;;;;;9.50;4.38;;;10.40;72.30;;;;;;5116312;28;20028;-62
2022/10/10 05:26:19;;;;;;;9.25;5.13;;;10.40;73.10;;;;;;5116548;27;20529;-62
2022/10/10 05:28:46;;;;;;;9.60;5.10;;;10.30;72.30;;;;;;5131921;27;20391;-62
2022/10/10 05:31:11;;;;;;;10.13;5.22;;;10.30;72.40;;;;;;5116517;28;20026;-62
2022/10/10 05:33:37;;;;;;;10.68;5.13;;;10.30;72.40;;;;;;5116920;28;20138;-62
2022/10/10 05:36:05;;;;;;;8.32;4.53;;;10.30;72.40;;;;;;5116592;28;20031;-62
2022/10/10 05:38:31;;;;;;;8.15;4.63;;;10.30;72.50;;;;;;5117105;28;20051;-62
2022/10/10 05:40:57;;;;;;;9.10;4.85;;;10.30;72.50;;;;;;5116647;28;20510;-62
2022/10/10 05:43:22;;;;;;;7.95;4.20;;;10.30;72.50;;;;;;5116849;27;20031;-63
2022/10/10 05:45:48;;;;;;;9.85;4.40;;;10.20;72.50;;;;;;5117431;27;20040;-62
2022/10/10 05:48:14;;;;;;;9.85;4.57;;;10.20;72.50;;;;;;5121326;27;20359;-62
2022/10/10 05:50:44;;;;;;;8.60;4.40;;;10.20;72.50;;;;;;5115237;28;20375;-62
2022/10/10 05:53:10;;;;;;;9.35;4.18;;;10.20;72.60;;;;;;5116845;28;20038;-62
2022/10/10 05:55:35;;;;;;;9.05;4.63;;;10.20;72.60;;;;;;5116434;28;20035;-62
2022/10/10 05:58:01;;;;;;;8.20;4.47;;;10.20;72.70;;;;;;5120726;27;20400;-62
2022/10/10 06:00:27;;;;;;;7.97;4.50;;;10.10;72.60;;;;;;5118326;27;20031;-62
2022/10/10 06:02:53;;;;;;;9.35;4.57;;;10.20;72.70;;;;;;5116763;28;20070;-62
2022/10/10 06:05:19;;;;;;;8.18;4.22;;;10.20;72.70;;;;;;5115950;28;20039;-62
2022/10/10 06:07:44;;;;;;;8.32;4.20;;;10.10;72.60;;;;;;5116938;28;20028;-62
2022/10/10 06:10:10;;;;;;;7.90;4.68;;;10.10;72.70;;;;;;5114891;27;20062;-62
2022/10/10 06:12:36;;;;;;;7.93;4.32;;;10.10;72.70;;;;;;5115973;27;20042;-63
2022/10/10 06:15:01;;;;;;;9.57;4.35;;;10.10;72.70;;;;;;5120773;27;20031;-63
2022/10/10 06:17:27;;;;;;;8.73;4.63;;;10.10;72.80;;;;;;5113356;28;20020;-63
2022/10/10 06:19:53;;;;;;;12.73;4.93;;;10.10;72.80;;;;;;5115493;28;20341;-63
2022/10/10 06:22:18;;;;;;;8.73;4.25;;;10.20;72.80;;;;;;5114848;27;20031;-63
2022/10/10 06:24:44;;;;;;;7.53;4.07;;;10.20;72.80;;;;;;5116424;27;20028;-63
2022/10/10 06:27:10;;;;;;;8.73;4.63;;;10.20;72.70;;;;;;5114623;28;20481;-63
2022/10/10 06:29:35;;;;;;;6.50;3.67;;;10.30;72.80;;;;;;5117018;27;20368;-63
2022/10/10 06:32:01;;;;;;;10.65;4.80;;;10.30;72.80;;;;;;5113027;28;20165;-64
2022/10/10 06:34:26;;;;;;;8.82;4.38;;;10.30;73.40;;;;;;5115637;28;20020;-63
2022/10/10 06:36:52;;;;;;;9.13;4.63;;;10.30;72.80;;;;;;5113801;27;20019;-63
2022/10/10 06:39:18;;;;;;;9.38;5.03;;;10.30;72.70;;;;;;5114423;28;20065;-63
2022/10/10 06:41:44;;;;;;;11.90;4.55;;;10.40;72.80;;;;;;5115325;28;20028;-63
2022/10/10 06:44:10;;;;;;;10.43;4.85;;;10.40;72.90;;;;;;5113770;28;20058;-63
2022/10/10 06:46:36;;;;;;;7.85;4.20;;;10.40;72.90;;;;;;5113512;28;20035;-63
2022/10/10 06:49:05;;;;;;;8.50;5.32;;;10.40;72.90;;;;;;5114359;27;20049;-63
2022/10/10 06:51:31;;;;;;;7.30;4.30;;;10.40;72.90;;;;;;5114251;28;20031;-63
2022/10/10 06:53:57;;;;;;;11.00;4.88;;;10.50;73.00;;;;;;5114654;27;20027;-63
2022/10/10 06:56:23;;;;;;;9.05;4.72;;;10.50;73.00;;;;;;5114662;28;20027;-63
2022/10/10 06:58:49;;;;;;;9.07;5.07;;;10.50;73.00;;;;;;5115753;27;20132;-63
2022/10/10 07:01:20;;;;;;;10.27;4.88;;;10.60;73.10;;;;;;5116021;27;20430;-63
2022/10/10 07:03:46;;;;;;;11.13;5.18;;;10.60;73.20;;;;;;5113582;28;20020;-63
2022/10/10 07:06:13;;;;;;;9.23;5.47;;;10.60;73.20;;;;;;5116562;27;20035;-62
2022/10/10 07:08:39;;;;;;;9.27;5.03;;;10.70;73.20;;;;;;5114584;28;20082;-64
2022/10/10 07:11:06;;;;;;;11.55;5.40;;;10.70;73.30;;;;;;5114702;28;20019;-63
2022/10/10 07:13:33;;;;;;;10.90;5.03;;;10.80;73.30;;;;;;5108559;27;20028;-63
2022/10/10 07:15:58;;;;;;;11.68;5.47;;;10.80;73.30;;;;;;5127341;27;20027;-64
2022/10/10 07:18:24;;;;;;;11.15;5.43;;;10.90;73.40;;;;;;5120924;27;20475;-63
2022/10/10 07:20:54;;;;;;;9.13;5.10;;;10.90;73.30;;;;;;5116007;27;20098;-63
2022/10/10 07:23:19;;;;;;;9.68;6.03;;;11.00;73.30;;;;;;5129643;27;20031;-64
2022/10/10 07:25:45;;;;;;;11.27;5.65;;;11.10;73.30;;;;;;5115379;27;20096;-64
2022/10/10 07:28:11;;;;;;;15.75;5.55;;;11.20;73.30;;;;;;5113546;28;20035;-64
2022/10/10 07:30:42;;;;;;;9.65;5.32;;;11.30;73.30;;;;;;5112854;28;20031;-64
2022/10/10 07:33:08;;;;;;;10.68;5.75;;;11.40;73.30;;;;;;5116130;27;20045;-64
2022/10/10 07:35:34;;;;;;;9.95;5.72;;;11.40;73.10;;;;;;5121317;28;20027;-64
2022/10/10 07:38:00;;;;;;;9.85;5.28;;;11.50;73.10;;;;;;5102814;28;20523;-64
2022/10/10 07:40:25;;;;;;;11.20;6.43;;;11.60;73.00;;;;;;5120505;27;20043;-64
2022/10/10 07:42:51;;;;;;;10.13;6.15;;;11.70;73.10;;;;;;5121699;27;20364;-64
2022/10/10 07:45:17;;;;;;;10.63;6.57;;;11.80;73.00;;;;;;5122586;27;20031;-64
2022/10/10 07:47:43;;;;;;;11.68;5.93;;;11.90;73.00;;;;;;5136038;27;20027;-64
2022/10/10 07:50:10;;;;;;;11.90;6.22;;;12.00;72.90;;;;;;5121536;27;20020;-64
2022/10/10 07:52:37;;;;;;;9.93;6.22;;;12.10;72.90;;;;;;5117399;27;20036;-64
2022/10/10 07:55:03;;;;;;;8.95;5.75;;;12.20;72.80;;;;;;5120419;27;20035;-63
2022/10/10 07:57:33;;;;;;;10.40;6.50;;;12.30;72.80;;;;;;5120913;27;20031;-64
2022/10/10 08:00:00;;;;;;;11.73;5.72;;;12.40;72.80;;;;;;5103043;28;20047;-64
2022/10/10 08:02:26;;;;;;;10.05;5.68;;;12.50;72.70;;;;;;5121923;27;20035;-63
2022/10/10 08:04:51;;;;;;;10.80;6.15;;;12.60;72.60;;;;;;5120620;28;20364;-64
2022/10/10 08:07:18;;;;;;;9.73;5.97;;;12.70;72.60;;;;;;5120927;27;20031;-64
2022/10/10 08:09:44;;;;;;;9.10;5.13;;;12.90;73.10;;;;;;5118929;27;20038;-64
2022/10/10 08:12:09;;;;;;;11.23;5.47;;;13.10;72.20;;;;;;5112556;27;20028;-63
2022/10/10 08:14:35;;;;;;;9.43;5.50;;;13.20;71.80;;;;;;5120416;28;20019;-64
2022/10/10 08:17:00;;;;;;;10.65;5.75;;;13.40;71.50;;;;;;5121406;28;20019;-64
2022/10/10 08:19:26;;;;;;;11.20;5.55;;;13.60;71.20;;;;;;5120267;28;20482;-64
2022/10/10 08:21:52;;;;;;;11.07;5.68;;;13.80;70.90;;;;;;5120436;28;20026;-64
2022/10/10 08:24:17;;;;;;;10.82;5.63;;;13.90;70.80;;;;;;5120264;27;20054;-64
2022/10/10 08:26:43;;;;;;;10.25;5.78;;;13.90;70.80;;;;;;5129556;27;20424;-64
2022/10/10 08:29:09;;;;;;;9.02;5.60;;;13.90;70.90;;;;;;5121380;27;20032;-64
2022/10/10 08:31:34;;;;;;;10.00;5.30;;;13.90;71.20;;;;;;5121613;28;20421;-64
2022/10/10 08:34:00;;;;;;;9.60;5.47;;;13.80;71.30;;;;;;5121616;28;20146;-64
2022/10/10 08:36:26;;;;;;;11.93;5.10;;;13.80;71.40;;;;;;5122121;28;20027;-64
2022/10/10 08:38:58;;;;;;;10.40;5.30;;;13.90;71.40;;;;;;5121170;28;20035;-63
2022/10/10 08:41:46;;;;;;;10.77;5.10;;;14.00;71.40;;;;;;5121460;27;20034;-63
2022/10/10 08:44:21;;;;;;;9.77;5.15;;;14.00;71.40;;;;;;5119780;27;20038;-63
2022/10/10 08:46:59;;;;;;;10.85;5.10;;;14.00;71.40;;;;;;5118145;28;20043;-63
2022/10/10 08:49:33;;;;;;;8.98;5.25;;;14.10;71.40;;;;;;5118049;28;20313;-63
2022/10/10 08:52:23;;;;;;;9.48;5.18;;;14.20;71.20;;;;;;5117976;28;20471;-63
2022/10/10 08:54:52;;;;;;;10.00;5.40;;;14.50;70.80;;;;;;5130720;27;20110;-63
2022/10/10 08:57:28;;;;;;;12.15;5.45;;;14.70;70.20;;;;;;5117742;28;20502;-63
2022/10/10 09:00:04;;;;;;;10.27;5.00;;;15.00;69.90;;;;;;5116929;28;20382;-63
2022/10/10 09:02:34;;;;;;;8.77;5.45;;;15.10;69.40;;;;;;5118263;28;20074;-63
2022/10/10 09:05:00;;;;;;;9.75;5.10;;;15.30;69.30;;;;;;5117573;28;20028;-63
2022/10/10 09:07:58;;;;;;;11.40;5.68;;;15.40;69.00;;;;;;5118245;28;20432;-63
2022/10/10 09:10:36;;;;;;;8.30;4.88;;;15.50;68.70;;;;;;5123487;27;20046;-63
2022/10/10 09:13:18;;;;;;;9.57;5.18;;;15.60;68.50;;;;;;5133089;27;20028;-63
2022/10/10 09:16:02;;;;;;;13.10;5.63;;;15.80;68.30;;;;;;5117708;28;20059;-63
2022/10/10 09:18:34;;;;;;;9.57;5.32;;;15.90;67.90;;;;;;5117064;28;20046;-63
2022/10/10 09:21:16;;;;;;;9.70;5.15;;;16.00;67.60;;;;;;5117313;28;20055;-63
2022/10/10 09:24:16;;;;;;;10.10;4.88;;;16.20;67.40;;;;;;5117210;28;20028;-63
2022/10/10 09:26:50;;;;;;;9.18;4.57;;;16.20;67.30;;;;;;5131036;27;20350;-63
2022/10/10 09:29:22;;;;;;;10.07;4.85;;;16.20;67.20;;;;;;5103482;28;20081;-63
2022/10/10 09:31:52;;;;;;;13.02;5.75;;;16.10;67.30;;;;;;5134033;27;20032;-63
2022/10/10 09:34:34;;;;;;;10.73;4.97;;;16.00;67.50;;;;;;5117034;27;20035;-63
2022/10/10 09:37:02;;;;;;;9.35;5.13;;;16.00;67.60;;;;;;5125022;27;20121;-63
2022/10/10 09:39:28;;;;;;;10.15;5.82;;;16.00;67.60;;;;;;5117987;27;20059;-63
2022/10/10 09:41:58;;;;;;;9.95;5.22;;;16.00;67.70;;;;;;5116697;28;20066;-63
2022/10/10 09:44:25;;;;;;;9.30;5.18;;;16.10;67.60;;;;;;5116730;28;20098;-63
2022/10/10 09:46:51;;;;;;;9.13;5.07;;;16.20;67.40;;;;;;5116802;28;20023;-63
2022/10/10 09:49:18;;;;;;;7.85;4.95;;;16.30;67.30;;;;;;5116774;28;20023;-63
2022/10/10 09:51:46;;;;;;;11.23;5.20;;;16.40;67.30;;;;;;5116701;28;20463;-63
2022/10/10 09:54:14;;;;;;;10.27;4.68;;;16.40;67.20;;;;;;5115942;28;20028;-63
2022/10/10 09:56:56;;;;;;;10.05;5.13;;;16.40;67.20;;;;;;5116280;28;20044;-63
2022/10/10 09:59:45;;;;;;;8.80;4.80;;;16.40;67.30;;;;;;5117120;28;20084;-63
2022/10/10 10:02:20;;;;;;;9.80;5.03;;;16.40;67.40;;;;;;5103598;28;20436;-63
2022/10/10 10:04:47;;;;;;;10.88;4.85;;;16.40;67.40;;;;;;5116391;28;20107;-63
2022/10/10 10:07:33;;;;;;;9.75;5.03;;;16.40;67.30;;;;;;5116503;28;20020;-63
2022/10/10 10:10:01;;;;;;;9.13;5.05;;;16.40;67.30;;;;;;5120109;27;20027;-63
2022/10/10 10:12:36;;;;;;;10.15;4.70;;;16.40;67.30;;;;;;5119877;27;20435;-63
2022/10/10 10:15:05;;;;;;;10.07;5.18;;;16.40;67.40;;;;;;5115157;28;20031;-63
2022/10/10 10:17:31;;;;;;;10.48;5.53;;;16.50;67.30;;;;;;5132383;27;20027;-63
2022/10/10 10:19:57;;;;;;;10.00;5.05;;;16.60;67.20;;;;;;5115919;28;20517;-63
2022/10/10 10:22:33;;;;;;;8.27;4.72;;;16.80;67.10;;;;;;5114214;28;20039;-63
2022/10/10 10:25:19;;;;;;;9.48;5.03;;;16.90;66.80;;;;;;5116343;27;20040;-64
2022/10/10 10:27:45;;;;;;;15.00;5.43;;;16.90;66.70;;;;;;5110152;27;20356;-64
2022/10/10 10:30:23;;;;;;;9.48;4.97;;;16.80;66.80;;;;;;5118341;27;20084;-64
2022/10/10 10:33:14;;;;;;;10.00;5.00;;;16.80;67.10;;;;;;5102575;28;20024;-63
2022/10/10 10:35:51;;;;;;;9.13;4.78;;;16.70;67.30;;;;;;5112677;27;20044;-63
2022/10/10 10:38:36;;;;;;;8.27;4.53;;;16.60;67.50;;;;;;5110936;27;20466;-63
2022/10/10 10:41:16;;;;;;;8.75;5.00;;;16.60;67.70;;;;;;5109646;28;20088;-63
2022/10/10 10:44:19;;;;;;;10.60;5.07;;;16.60;67.80;;;;;;5114869;27;20077;-65
2022/10/10 10:47:08;;;;;;;10.88;4.35;;;16.60;67.80;;;;;;5111959;27;20494;-63
2022/10/10 10:49:48;;;;;;;9.50;4.75;;;16.60;67.80;;;;;;5112758;27;20035;-63
2022/10/10 10:52:35;;;;;;;10.60;5.07;;;16.50;67.80;;;;;;5110317;27;20020;-63
2022/10/10 10:55:28;;;;;;;12.95;5.45;;;16.50;67.90;;;;;;5112100;27;20133;-63
2022/10/10 10:58:25;;;;;;;8.82;4.82;;;16.50;68.00;;;;;;5111033;27;20356;-63
2022/10/10 11:00:57;;;;;;;11.43;4.45;;;16.60;68.10;;;;;;5125682;27;20112;-64
2022/10/10 11:03:58;;;;;;;9.60;4.88;;;16.70;67.80;;;;;;5111696;27;20084;-63
2022/10/10 11:06:30;;;;;;;10.55;5.10;;;16.90;67.60;;;;;;5111624;27;20020;-63
2022/10/10 11:09:14;;;;;;;10.93;5.03;;;17.00;67.40;;;;;;5121588;27;20023;-63
2022/10/10 11:11:45;;;;;;;9.13;4.20;;;17.10;67.30;;;;;;5113090;27;20030;-63
2022/10/10 11:14:46;;;;;;;9.90;5.05;;;17.20;67.20;;;;;;5125436;27;20452;-63
2022/10/10 11:17:18;;;;;;;9.38;4.63;;;17.30;67.00;;;;;;5062368;28;20059;-63
2022/10/10 11:19:55;;;;;;;;;;;17.50;66.70;;;;;;5063254;28;20378;-64
2022/10/10 11:22:43;;;;;;;7.30;3.80;;;17.50;66.50;;;;;;5062891;28;20007;-63
2022/10/10 11:25:35;;;;;;;8.93;4.63;;;17.50;66.60;;;;;;5042809;28;20064;-63
2022/10/10 11:28:13;;;;;;;10.30;4.45;;;17.70;66.50;;;;;;5061989;28;20064;-63
2022/10/10 11:30:45;;;;;;;9.07;4.45;;;17.90;66.20;;;;;;5062090;28;20056;-63
2022/10/10 11:33:17;;;;;;;8.93;4.65;;;18.10;65.90;;;;;;5061282;28;20036;-63
2022/10/10 11:35:58;;;;;;;9.70;4.78;;;18.20;65.90;;;;;;5065973;28;20461;-63
2022/10/10 11:38:26;;;;;;;9.43;5.05;;;18.30;65.70;;;;;;5058780;28;20045;-63
2022/10/10 11:41:11;;;;;;;9.07;4.80;;;18.30;65.60;;;;;;5063967;28;20032;-62
2022/10/10 11:43:47;;;;;;;9.85;4.25;;;18.40;65.70;;;;;;5059811;28;20080;-60
2022/10/10 11:46:37;;;;;;;8.65;4.78;;;18.30;65.70;;;;;;5064065;28;20210;-60
2022/10/10 11:49:27;;;;;;;8.60;4.75;;;18.20;65.80;;;;;;5058464;28;20039;-60
2022/10/10 11:51:56;;;;;;;10.48;4.45;;;18.20;66.10;;;;;;5101266;28;20061;-60
2022/10/10 11:54:44;;;;;;;9.65;4.93;;;18.10;66.20;;;;;;5111251;28;20072;-60
2022/10/10 11:57:18;;;;;;;8.30;4.63;;;18.00;66.40;;;;;;5113721;28;20479;-60
2022/10/10 12:00:04;;;;;;;9.50;4.63;;;18.00;66.60;;;;;;5117403;28;20042;-60
2022/10/10 12:02:33;;;;;;;11.02;5.00;;;17.90;66.90;;;;;;5131560;28;20034;-60
2022/10/10 12:04:59;;;;;;;9.57;5.22;;;17.80;67.00;;;;;;5114730;28;20043;-60
2022/10/10 12:07:31;;;;;;;10.07;4.70;;;17.80;67.30;;;;;;5115029;28;20449;-60
2022/10/10 12:10:14;;;;;;;10.02;4.13;;;17.80;67.40;;;;;;5113901;28;20027;-59
2022/10/10 12:12:44;;;;;;;12.10;4.78;;;17.90;67.40;;;;;;5115071;28;20099;-60
2022/10/10 12:15:32;;;;;;;9.00;4.50;;;17.90;67.40;;;;;;5115122;28;20035;-60
2022/10/10 12:17:58;;;;;;;10.02;4.20;;;17.90;67.50;;;;;;5113627;28;20516;-60
2022/10/10 12:20:26;;;;;;;9.20;4.68;;;17.90;67.60;;;;;;5116209;28;20425;-59
2022/10/10 12:23:25;;;;;;;9.38;5.25;;;18.00;67.60;;;;;;5117791;28;20333;-60
2022/10/10 12:25:51;;;;;;;10.93;5.07;;;18.00;67.60;;;;;;5127437;27;20042;-60
2022/10/10 12:28:17;;;;;;;7.80;4.32;;;18.00;67.60;;;;;;5125051;27;20110;-60
2022/10/10 12:30:51;;;;;;;12.60;5.45;;;18.00;67.70;;;;;;5118462;28;20028;-60
2022/10/10 12:33:43;;;;;;;10.15;4.88;;;18.00;67.90;;;;;;5134806;27;20080;-60
2022/10/10 12:36:18;;;;;;;10.50;4.70;;;17.90;68.10;;;;;;5117244;27;20472;-60
2022/10/10 12:39:04;;;;;;;12.02;4.80;;;17.80;68.40;;;;;;5134550;27;20031;-60
2022/10/10 12:41:39;;;;;;;10.13;4.85;;;17.80;68.60;;;;;;5106559;28;20043;-59
2022/10/10 12:44:14;;;;;;;12.75;5.05;;;17.70;68.90;;;;;;5117131;28;20039;-60
2022/10/10 12:46:41;;;;;;;9.82;5.00;;;17.60;69.20;;;;;;5118607;28;20059;-60
2022/10/10 12:49:22;;;;;;;10.23;4.60;;;17.50;69.30;;;;;;5117844;28;20028;-60
2022/10/10 12:52:19;;;;;;;11.27;4.65;;;17.50;69.60;;;;;;5147294;27;20091;-60
2022/10/10 12:54:45;;;;;;;10.60;4.80;;;17.40;69.80;;;;;;5117004;27;20027;-59
2022/10/10 12:57:25;;;;;;;8.55;4.53;;;17.40;70.00;;;;;;5118395;27;20055;-60
2022/10/10 12:59:50;;;;;;;14.50;4.85;;;17.30;70.30;;;;;;5117379;28;20038;-60
2022/10/10 13:02:24;;;;;;;8.95;4.88;;;17.30;70.40;;;;;;5118445;28;20020;-60